createdAt,value
2017-05-19T00:01:35.308Z,3.06
2017-05-19T00:04:03.511Z,3.40
2017-05-19T00:06:31.726Z,3.38
2017-05-19T00:09:00.683Z,3.52
2017-05-19T00:11:28.916Z,3.62
2017-05-19T00:13:57.133Z,3.12
2017-05-19T00:16:25.340Z,3.60
2017-05-19T00:18:54.315Z,3.20
2017-05-19T00:21:23.292Z,3.38
2017-05-19T00:23:51.502Z,3.80
2017-05-19T00:26:20.464Z,4.20
2017-05-19T00:28:48.684Z,4.30
2017-05-19T00:31:16.892Z,4.68
2017-05-19T00:33:45.112Z,3.82
2017-05-19T00:36:14.070Z,4.24
2017-05-19T00:38:42.276Z,3.68
2017-05-19T00:41:11.236Z,3.28
2017-05-19T00:43:39.445Z,3.24
2017-05-19T00:46:08.396Z,3.32
2017-05-19T00:48:36.604Z,4.10
2017-05-19T00:51:06.304Z,4.14
2017-05-19T00:53:35.265Z,4.00
2017-05-19T00:56:03.480Z,4.38
2017-05-19T00:58:32.429Z,4.14
2017-05-19T01:01:00.647Z,4.56
2017-05-19T01:03:29.616Z,4.74
2017-05-19T01:05:57.819Z,5.08
2017-05-19T01:08:26.042Z,5.88
2017-05-19T01:10:55.097Z,5.38
2017-05-19T01:13:23.308Z,4.78
2017-05-19T01:15:52.134Z,5.12
2017-05-19T01:18:21.092Z,4.74
2017-05-19T01:20:49.304Z,5.20
2017-05-19T01:23:18.271Z,5.08
2017-05-19T01:25:46.480Z,5.20
2017-05-19T01:28:14.701Z,4.72
2017-05-19T01:30:43.691Z,4.86
2017-05-19T01:33:11.918Z,4.90
2017-05-19T01:35:40.139Z,4.42
2017-05-19T01:38:08.351Z,5.50
2017-05-19T01:40:37.311Z,4.60
2017-05-19T01:43:05.517Z,4.38
2017-05-19T01:45:34.472Z,4.80
2017-05-19T01:48:03.400Z,4.94
2017-05-19T01:50:32.356Z,5.52
2017-05-19T01:53:00.568Z,5.24
2017-05-19T01:55:29.532Z,5.28
2017-05-19T01:57:57.740Z,5.64
2017-05-19T02:00:26.711Z,5.26
2017-05-19T02:02:54.919Z,4.94
2017-05-19T02:05:23.132Z,5.14
2017-05-19T02:07:51.357Z,4.40
2017-05-19T02:10:20.312Z,4.92
2017-05-19T02:12:49.396Z,4.94
2017-05-19T02:15:17.605Z,5.54
2017-05-19T02:17:46.561Z,5.72
2017-05-19T02:20:14.764Z,5.80
2017-05-19T02:22:44.439Z,6.72
2017-05-19T02:25:12.647Z,6.10
2017-05-19T02:27:41.607Z,5.94
2017-05-19T02:30:09.815Z,6.50
2017-05-19T02:32:38.782Z,5.74
2017-05-19T02:35:06.991Z,5.54
2017-05-19T02:37:35.960Z,4.54
2017-05-19T02:40:04.168Z,5.18
2017-05-19T02:42:32.384Z,5.48
2017-05-19T02:45:00.595Z,5.38
2017-05-19T02:47:29.547Z,6.68
2017-05-19T02:49:57.761Z,5.44
2017-05-19T02:52:25.968Z,5.36
2017-05-19T02:54:54.192Z,7.84
2017-05-19T02:57:22.395Z,6.32
2017-05-19T02:59:51.360Z,6.16
2017-05-19T03:02:19.568Z,6.30
2017-05-19T03:04:47.787Z,7.02
2017-05-19T03:07:16.007Z,6.36
2017-05-19T03:09:44.968Z,6.48
2017-05-19T03:12:13.180Z,6.30
2017-05-19T03:14:41.405Z,5.86
2017-05-19T03:17:09.623Z,6.02
2017-05-19T03:19:38.576Z,6.94
2017-05-19T03:22:06.788Z,6.36
2017-05-19T03:24:35.740Z,5.30
2017-05-19T03:27:03.953Z,4.86
2017-05-19T03:29:32.896Z,5.02
2017-05-19T03:32:01.105Z,5.08
2017-05-19T03:34:30.057Z,5.76
2017-05-19T03:36:58.269Z,5.82
2017-05-19T03:39:27.229Z,5.16
2017-05-19T03:41:55.443Z,5.26
2017-05-19T03:44:24.396Z,6.86
2017-05-19T03:46:52.604Z,5.78
2017-05-19T03:49:21.561Z,4.42
2017-05-19T03:51:49.765Z,5.02
2017-05-19T03:54:18.722Z,5.42
2017-05-19T03:56:46.932Z,4.56
2017-05-19T03:59:15.898Z,4.60
2017-05-19T04:01:44.103Z,4.28
2017-05-19T04:04:13.189Z,5.00
2017-05-19T04:06:42.143Z,5.12
2017-05-19T04:09:10.363Z,4.84
2017-05-19T04:11:39.351Z,5.48
2017-05-19T04:14:08.316Z,5.32
2017-05-19T04:16:36.544Z,5.24
2017-05-19T04:19:04.776Z,5.16
2017-05-19T04:21:32.990Z,5.76
2017-05-19T04:24:01.203Z,5.04
2017-05-19T04:26:29.411Z,4.70
2017-05-19T04:28:58.364Z,5.38
2017-05-19T04:31:26.587Z,5.36
2017-05-19T04:33:55.532Z,5.26
2017-05-19T04:36:23.768Z,5.80
2017-05-19T04:38:51.980Z,5.48
2017-05-19T04:41:20.927Z,6.98
2017-05-19T04:43:49.143Z,5.68
2017-05-19T04:46:18.091Z,6.20
2017-05-19T04:48:46.512Z,6.18
2017-05-19T04:51:15.486Z,6.78
2017-05-19T04:53:43.698Z,6.40
2017-05-19T04:56:11.903Z,6.78
2017-05-19T04:58:40.116Z,6.26
2017-05-19T05:01:09.071Z,6.64
2017-05-19T05:03:37.291Z,6.50
2017-05-19T05:06:06.247Z,6.18
2017-05-19T05:08:34.463Z,6.20
2017-05-19T05:11:03.410Z,6.18
2017-05-19T05:13:31.638Z,6.18
2017-05-19T05:15:59.851Z,6.20
2017-05-19T05:18:28.055Z,6.88
2017-05-19T05:20:57.016Z,7.02
2017-05-19T05:23:25.223Z,5.92
2017-05-19T05:25:54.183Z,5.16
2017-05-19T05:28:22.399Z,4.80
2017-05-19T05:30:50.628Z,5.56
2017-05-19T05:33:18.843Z,6.20
2017-05-19T05:35:47.798Z,6.20
2017-05-19T05:38:16.008Z,6.00
2017-05-19T05:40:44.997Z,5.94
2017-05-19T05:43:13.952Z,6.82
2017-05-19T05:45:42.167Z,6.90
2017-05-19T05:48:11.131Z,6.82
2017-05-19T05:50:39.340Z,4.98
2017-05-19T05:53:08.303Z,6.36
2017-05-19T05:55:36.511Z,6.02
2017-05-19T05:58:04.731Z,5.20
2017-05-19T06:00:32.953Z,5.50
2017-05-19T06:03:01.200Z,6.44
2017-05-19T06:05:29.424Z,5.52
2017-05-19T06:07:57.652Z,5.98
2017-05-19T06:10:25.871Z,5.80
2017-05-19T06:12:54.083Z,6.12
2017-05-19T06:15:22.302Z,6.50
2017-05-19T06:17:51.288Z,6.34
2017-05-19T06:20:19.519Z,5.96
2017-05-19T06:22:47.740Z,7.50
2017-05-19T06:25:16.698Z,6.40
2017-05-19T06:27:44.899Z,5.18
2017-05-19T06:30:13.871Z,6.76
2017-05-19T06:32:42.093Z,5.14
2017-05-19T06:35:10.307Z,6.10
2017-05-19T06:37:38.568Z,5.14
2017-05-19T06:40:06.744Z,4.72
2017-05-19T06:42:34.984Z,4.72
2017-05-19T06:45:03.193Z,5.42
2017-05-19T06:47:31.416Z,5.62
2017-05-19T06:50:00.379Z,5.38
2017-05-19T06:52:28.588Z,5.30
2017-05-19T06:54:56.807Z,5.14
2017-05-19T06:57:25.027Z,3.84
2017-05-19T06:59:53.976Z,4.28
2017-05-19T07:02:22.245Z,4.80
2017-05-19T07:04:50.456Z,4.32
2017-05-19T07:07:18.699Z,3.90
2017-05-19T07:09:46.907Z,3.90
2017-05-19T07:12:15.119Z,3.88
2017-05-19T07:14:44.287Z,3.52
2017-05-19T07:17:12.506Z,4.10
2017-05-19T07:19:40.714Z,3.78
2017-05-19T07:22:08.935Z,3.70
2017-05-19T07:24:37.892Z,3.64
2017-05-19T07:27:06.107Z,4.66
2017-05-19T07:29:34.328Z,4.42
2017-05-19T07:32:02.539Z,3.94
2017-05-19T07:34:31.496Z,3.78
2017-05-19T07:36:59.720Z,3.82
2017-05-19T07:39:27.955Z,3.84
2017-05-19T07:41:56.161Z,4.38
2017-05-19T07:44:25.123Z,3.84
2017-05-19T07:46:54.207Z,3.94
2017-05-19T07:49:22.521Z,3.64
2017-05-19T07:51:51.474Z,4.10
2017-05-19T07:54:19.727Z,3.96
2017-05-19T07:56:47.931Z,4.06
2017-05-19T07:59:16.912Z,4.64
2017-05-19T08:01:45.900Z,4.26
2017-05-19T08:04:14.100Z,3.90
2017-05-19T08:06:42.341Z,4.78
2017-05-19T08:09:10.548Z,4.58
2017-05-19T08:11:38.765Z,4.78
2017-05-19T08:14:06.976Z,5.28
2017-05-19T08:16:35.319Z,5.38
2017-05-19T08:19:03.523Z,5.62
2017-05-19T08:21:32.478Z,8.60
2017-05-19T08:24:00.695Z,7.80
2017-05-19T08:26:29.648Z,7.34
2017-05-19T08:28:57.896Z,6.50
2017-05-19T08:31:26.122Z,5.70
2017-05-19T08:33:54.359Z,5.52
2017-05-19T08:36:22.592Z,4.10
2017-05-19T08:38:51.073Z,3.52
2017-05-19T08:41:19.310Z,1.82
2017-05-19T08:43:47.532Z,2.10
2017-05-19T08:46:15.735Z,1.98
2017-05-19T08:48:43.953Z,1.88
2017-05-19T08:51:12.900Z,3.34
2017-05-19T08:53:42.011Z,2.24
2017-05-19T08:56:10.999Z,1.74
2017-05-19T08:58:39.215Z,1.40
2017-05-19T09:01:08.583Z,1.24
2017-05-19T09:03:36.999Z,1.26
2017-05-19T09:06:05.216Z,1.30
2017-05-19T09:08:33.469Z,1.28
2017-05-19T09:11:01.763Z,0.98
2017-05-19T09:13:31.518Z,0.88
2017-05-19T09:15:59.767Z,1.10
2017-05-19T09:18:27.977Z,1.00
2017-05-19T09:20:56.195Z,1.46
2017-05-19T09:23:25.143Z,0.98
2017-05-19T09:25:53.351Z,1.22
2017-05-19T09:28:22.312Z,1.38
2017-05-19T09:30:50.518Z,1.30
2017-05-19T09:33:19.476Z,1.26
2017-05-19T09:35:47.686Z,1.00
2017-05-19T09:38:16.644Z,1.06
2017-05-19T09:40:44.856Z,0.76
2017-05-19T09:43:13.056Z,0.60
2017-05-19T09:45:41.295Z,0.54
2017-05-19T09:48:10.251Z,0.60
2017-05-19T09:50:38.464Z,0.96
2017-05-19T09:53:07.421Z,0.90
2017-05-19T09:55:35.640Z,0.50
2017-05-19T09:58:04.601Z,0.62
2017-05-19T10:00:32.807Z,0.60
2017-05-19T10:03:01.759Z,0.80
2017-05-19T10:05:29.959Z,0.60
2017-05-19T10:07:58.937Z,0.70
2017-05-19T10:10:27.150Z,0.62
2017-05-19T10:12:55.370Z,0.50
2017-05-19T10:15:23.595Z,0.70
2017-05-19T10:17:51.815Z,0.70
2017-05-19T10:20:20.022Z,0.62
2017-05-19T10:22:48.980Z,0.70
2017-05-19T10:25:17.196Z,0.60
2017-05-19T10:27:46.156Z,0.54
2017-05-19T10:30:14.360Z,0.50
2017-05-19T10:32:43.320Z,0.30
2017-05-19T10:35:11.527Z,0.56
2017-05-19T10:37:40.507Z,0.30
2017-05-19T10:40:09.465Z,0.40
2017-05-19T10:42:37.672Z,0.30
2017-05-19T10:45:05.914Z,0.30
2017-05-19T10:47:34.120Z,0.30
2017-05-19T10:50:03.077Z,0.32
2017-05-19T10:52:31.295Z,0.30
2017-05-19T10:55:00.246Z,0.40
2017-05-19T10:57:28.463Z,0.40
2017-05-19T10:59:56.679Z,0.40
2017-05-19T11:02:24.900Z,0.50
2017-05-19T11:04:53.132Z,0.40
2017-05-19T11:07:21.378Z,0.58
2017-05-19T11:09:49.600Z,0.74
2017-05-19T11:12:17.807Z,0.40
2017-05-19T11:14:46.052Z,0.50
2017-05-19T11:17:15.020Z,0.38
2017-05-19T11:19:43.244Z,0.30
2017-05-19T11:22:12.201Z,0.28
2017-05-19T11:24:40.423Z,0.28
2017-05-19T11:27:08.646Z,0.30
2017-05-19T11:29:36.868Z,0.46
2017-05-19T11:32:05.103Z,0.30
2017-05-19T11:34:33.335Z,0.58
2017-05-19T11:37:01.567Z,0.40
2017-05-19T11:39:30.550Z,0.66
2017-05-19T11:41:58.760Z,0.40
2017-05-19T11:44:26.971Z,0.32
2017-05-19T11:46:55.190Z,0.40
2017-05-19T11:49:24.147Z,0.38
2017-05-19T11:51:52.359Z,0.30
2017-05-19T11:54:21.328Z,0.30
2017-05-19T11:56:49.798Z,0.30
2017-05-19T11:59:18.017Z,0.50
2017-05-19T12:01:46.241Z,0.40
2017-05-19T12:04:14.461Z,0.40
2017-05-19T12:06:42.680Z,0.66
2017-05-19T12:09:10.916Z,0.76
2017-05-19T12:11:41.397Z,0.68
2017-05-19T12:14:09.607Z,0.30
2017-05-19T12:16:37.843Z,0.20
2017-05-19T12:19:42.803Z,0.40
2017-05-19T12:22:11.043Z,0.30
2017-05-19T12:24:39.260Z,0.20
2017-05-19T12:27:07.482Z,0.30
2017-05-19T12:29:35.709Z,0.30
2017-05-19T12:32:03.929Z,0.30
2017-05-19T12:34:32.146Z,0.30
2017-05-19T12:37:00.364Z,0.38
2017-05-19T12:39:28.603Z,0.38
2017-05-19T12:41:56.832Z,0.34
2017-05-19T12:44:25.061Z,0.30
2017-05-19T12:46:54.056Z,0.40
2017-05-19T12:49:22.288Z,0.40
2017-05-19T12:51:50.506Z,0.20
2017-05-19T12:54:18.743Z,0.34
2017-05-19T12:56:46.971Z,0.40
2017-05-19T12:59:15.192Z,0.26
2017-05-19T13:01:43.418Z,0.54
2017-05-19T13:04:11.639Z,0.24
2017-05-19T13:06:39.863Z,0.30
2017-05-19T13:09:08.079Z,0.40
2017-05-19T13:11:36.304Z,0.32
2017-05-19T13:14:04.519Z,0.40
2017-05-19T13:16:32.743Z,0.56
2017-05-19T13:19:00.964Z,0.40
2017-05-19T13:21:29.191Z,0.40
2017-05-19T13:23:57.427Z,0.40
2017-05-19T13:26:25.644Z,0.40
2017-05-19T13:28:53.868Z,0.50
2017-05-19T13:31:22.089Z,0.42
2017-05-19T13:33:50.306Z,0.40
2017-05-19T13:36:18.524Z,0.64
2017-05-19T13:38:46.785Z,0.54
2017-05-19T13:41:15.000Z,0.42
2017-05-19T13:43:43.228Z,0.40
2017-05-19T13:46:11.456Z,0.48
2017-05-19T13:48:39.667Z,0.50
2017-05-19T13:51:07.892Z,0.42
2017-05-19T13:53:36.205Z,0.30
2017-05-19T13:56:04.420Z,0.30
2017-05-19T13:58:32.652Z,0.40
2017-05-19T14:01:00.876Z,0.40
2017-05-19T14:03:29.104Z,0.38
2017-05-19T14:05:57.319Z,0.30
2017-05-19T14:08:25.548Z,0.34
2017-05-19T14:10:54.492Z,0.36
2017-05-19T14:13:22.816Z,0.26
2017-05-19T14:15:51.062Z,0.44
2017-05-19T14:18:20.107Z,0.50
2017-05-19T14:20:48.400Z,0.40
2017-05-19T14:23:16.676Z,0.38
2017-05-19T14:25:44.891Z,0.40
2017-05-19T14:28:13.108Z,0.42
2017-05-19T14:30:41.328Z,0.50
2017-05-19T14:33:09.547Z,0.30
2017-05-19T14:35:37.771Z,0.30
2017-05-19T14:38:05.983Z,0.50
2017-05-19T14:40:34.212Z,0.30
2017-05-19T14:43:02.431Z,0.30
2017-05-19T14:45:30.677Z,0.40
2017-05-19T14:47:58.904Z,0.38
2017-05-19T14:50:27.123Z,0.48
2017-05-19T14:52:55.349Z,0.40
2017-05-19T14:55:23.571Z,0.60
2017-05-19T14:57:51.786Z,0.46
2017-05-19T15:00:20.003Z,0.40
2017-05-19T15:02:47.460Z,0.50
2017-05-19T15:05:15.678Z,0.54
2017-05-19T15:07:43.968Z,0.40
2017-05-19T15:10:12.184Z,0.62
2017-05-19T15:12:40.403Z,0.60
2017-05-19T15:15:08.633Z,0.60
2017-05-19T15:17:36.873Z,0.50
2017-05-19T15:20:05.097Z,0.68
2017-05-19T15:22:33.322Z,0.62
2017-05-19T15:25:01.549Z,0.64
2017-05-19T15:27:29.771Z,0.38
2017-05-19T15:29:58.013Z,0.66
2017-05-19T15:32:26.233Z,0.80
2017-05-19T15:34:54.474Z,0.80
2017-05-19T15:37:22.696Z,0.68
2017-05-19T15:39:50.928Z,0.60
2017-05-19T15:42:19.165Z,0.70
2017-05-19T15:44:47.392Z,0.68
2017-05-19T15:47:15.619Z,0.64
2017-05-19T15:49:43.853Z,0.86
2017-05-19T15:52:12.100Z,0.70
2017-05-19T15:54:40.316Z,0.44
2017-05-19T15:57:08.545Z,0.60
2017-05-19T15:59:36.763Z,0.70
2017-05-19T16:02:04.992Z,0.62
2017-05-19T16:04:33.212Z,0.50
2017-05-19T16:07:01.436Z,0.48
2017-05-19T16:09:29.660Z,0.52
2017-05-19T16:11:57.889Z,0.42
2017-05-19T16:14:26.136Z,0.30
2017-05-19T16:16:54.351Z,0.50
2017-05-19T16:19:22.572Z,0.40
2017-05-19T16:21:50.796Z,0.68
2017-05-19T16:24:19.013Z,0.70
2017-05-19T16:26:47.235Z,0.56
2017-05-19T16:29:15.452Z,0.78
2017-05-19T16:31:43.734Z,0.70
2017-05-19T16:34:11.958Z,0.76
2017-05-19T16:36:40.208Z,0.62
2017-05-19T16:39:08.431Z,0.70
2017-05-19T16:41:36.644Z,0.50
2017-05-19T16:44:04.879Z,1.04
2017-05-19T16:46:33.099Z,1.18
2017-05-19T16:49:01.343Z,1.16
2017-05-19T16:51:29.561Z,1.04
2017-05-19T16:53:57.788Z,0.80
2017-05-19T16:56:26.027Z,1.10
2017-05-19T16:58:54.260Z,1.40
2017-05-19T17:01:22.476Z,1.10
2017-05-19T17:03:50.697Z,1.04
2017-05-19T17:06:18.153Z,1.08
2017-05-19T17:08:46.396Z,1.08
2017-05-19T17:11:14.612Z,0.80
2017-05-19T17:13:42.827Z,1.20
2017-05-19T17:16:11.064Z,0.96
2017-05-19T17:18:39.281Z,0.90
2017-05-19T17:21:07.495Z,0.70
2017-05-19T17:23:35.717Z,1.02
2017-05-19T17:26:03.935Z,0.94
2017-05-19T17:28:32.155Z,1.20
2017-05-19T17:31:00.383Z,0.74
2017-05-19T17:33:28.604Z,0.78
2017-05-19T17:35:56.823Z,0.66
2017-05-19T17:38:25.053Z,0.96
2017-05-19T17:40:53.274Z,0.58
2017-05-19T17:43:21.519Z,0.50
2017-05-19T17:45:49.739Z,0.62
2017-05-19T17:48:17.971Z,0.34
2017-05-19T17:50:46.195Z,0.40
2017-05-19T17:53:14.424Z,0.62
2017-05-19T17:55:42.635Z,0.60
2017-05-19T17:58:10.887Z,0.60
2017-05-19T18:00:39.849Z,0.48
2017-05-19T18:03:07.292Z,0.60
2017-05-19T18:05:34.739Z,0.50
2017-05-19T18:08:02.963Z,0.56
2017-05-19T18:10:30.460Z,0.58
2017-05-19T18:12:57.916Z,0.40
2017-05-19T18:15:25.365Z,0.44
2017-05-19T18:17:54.072Z,0.50
2017-05-19T19:30:26.534Z,0.40
2017-05-19T19:32:57.366Z,0.40
2017-05-19T19:35:26.421Z,0.50
2017-05-19T19:37:54.997Z,0.40
2017-05-19T19:40:23.668Z,0.36
2017-05-19T19:42:52.842Z,0.44
2017-05-19T19:45:21.796Z,0.40
2017-05-19T19:47:50.012Z,0.64
2017-05-19T19:50:18.239Z,0.30
2017-05-19T19:52:46.452Z,0.64
2017-05-19T19:55:14.695Z,0.50
2017-05-19T19:57:42.908Z,0.50
2017-05-19T20:00:10.380Z,0.52
2017-05-19T20:02:38.600Z,0.50
2017-05-19T20:05:06.812Z,0.40
2017-05-19T20:07:35.046Z,0.40
2017-05-19T20:10:03.255Z,0.56
2017-05-19T20:12:31.479Z,0.74
2017-05-19T20:14:58.927Z,0.70
2017-05-19T20:17:34.760Z,0.66
2017-05-19T20:20:03.038Z,0.64
2017-05-19T20:22:31.251Z,0.56
2017-05-19T20:24:59.476Z,0.70
2017-05-19T20:27:27.697Z,0.64
2017-05-19T20:29:55.960Z,0.68
2017-05-19T20:32:24.200Z,1.02
2017-05-19T20:34:52.417Z,1.04
2017-05-19T20:37:20.649Z,0.68
2017-05-19T20:39:48.866Z,0.64
2017-05-19T20:42:17.100Z,0.84
2017-05-19T20:44:45.315Z,0.88
2017-05-19T20:47:13.535Z,0.96
2017-05-19T20:49:41.756Z,1.08
2017-05-19T20:52:09.980Z,0.80
2017-05-19T20:54:38.245Z,0.62
2017-05-19T20:57:06.461Z,0.78
2017-05-19T20:59:33.927Z,0.92
2017-05-19T21:02:02.151Z,0.60
2017-05-19T21:04:30.398Z,0.70
2017-05-19T21:06:58.618Z,0.64
2017-05-19T21:09:26.848Z,1.70
2017-05-19T21:11:55.073Z,0.98
2017-05-19T21:14:23.302Z,0.92
2017-05-19T21:16:51.535Z,0.98
2017-05-19T21:19:19.748Z,1.10
2017-05-19T21:21:47.983Z,0.82
2017-05-19T21:24:16.196Z,0.84
2017-05-19T21:26:44.440Z,1.06
2017-05-19T21:29:12.660Z,1.12
2017-05-19T21:31:40.880Z,0.96
2017-05-19T21:34:09.103Z,1.10
2017-05-19T21:36:37.323Z,1.10
2017-05-19T21:39:05.553Z,0.84
2017-05-19T21:41:33.777Z,0.90
2017-05-19T21:44:01.999Z,1.10
2017-05-19T21:46:30.220Z,1.06
2017-05-19T21:48:58.448Z,0.90
2017-05-19T21:51:27.025Z,1.06
2017-05-19T21:53:55.248Z,0.76
2017-05-19T21:56:23.498Z,1.20
2017-05-19T21:58:51.716Z,0.90
2017-05-19T22:01:19.956Z,0.90
2017-05-19T22:03:48.179Z,1.46
2017-05-19T22:06:16.400Z,0.80
2017-05-19T22:08:44.627Z,1.10
2017-05-19T22:11:12.883Z,1.00
2017-05-19T22:13:41.100Z,0.94
2017-05-19T22:16:09.323Z,0.96
2017-05-19T22:18:37.543Z,1.08
2017-05-19T22:21:05.760Z,0.90
2017-05-19T22:23:33.215Z,1.08
2017-05-19T22:26:01.428Z,0.84
2017-05-19T22:28:29.648Z,1.00
2017-05-19T22:30:57.873Z,0.96
2017-05-19T22:33:26.085Z,1.10
2017-05-19T22:35:54.299Z,0.98
2017-05-19T22:38:22.525Z,1.12
2017-05-19T22:40:50.746Z,1.22
2017-05-19T22:43:18.967Z,1.04
2017-05-19T22:45:47.183Z,0.94
2017-05-19T22:48:15.443Z,1.18
2017-05-19T22:50:43.652Z,1.06
2017-05-19T22:53:11.881Z,1.08
2017-05-19T22:55:40.100Z,1.10
2017-05-19T22:58:08.343Z,1.08
2017-05-19T23:00:36.556Z,0.82
2017-05-19T23:03:04.785Z,1.10
2017-05-19T23:05:32.999Z,0.94
2017-05-19T23:08:01.212Z,0.80
2017-05-19T23:10:29.438Z,1.52
2017-05-19T23:12:57.655Z,1.02
2017-05-19T23:15:25.875Z,0.84
2017-05-19T23:17:54.089Z,0.74
2017-05-19T23:20:22.323Z,0.94
2017-05-19T23:22:50.536Z,1.10
2017-05-19T23:25:18.772Z,0.90
2017-05-19T23:27:46.980Z,1.52
2017-05-19T23:30:15.204Z,1.14
2017-05-19T23:32:43.425Z,0.94
2017-05-19T23:35:11.650Z,0.94
2017-05-19T23:37:39.866Z,1.14
2017-05-19T23:40:08.091Z,1.08
2017-05-19T23:42:36.311Z,1.10
2017-05-19T23:45:04.523Z,1.00
2017-05-19T23:47:32.745Z,0.86
2017-05-19T23:50:00.971Z,1.16
2017-05-19T23:52:29.220Z,1.08
2017-05-19T23:54:57.436Z,1.16
2017-05-19T23:57:25.647Z,1.38
2017-05-19T23:59:53.872Z,1.18
